Time;durP1;ratioP1;P1;durP2;ratioP2;P2;SDS_P1;SDS_P2;PMS_P1;PMS_P2;Temp;Humidity;BMP_temperature;BMP_pressure;BME280_temperature;BME280_humidity;BME280_pressure;Samples;Min_cycle;Max_cycle;Signal;HPM_P1;HPM_P2
2023/05/28 00:00:26;;;;;;;14.35;7.93;;;19.70;89.60;;;;;;5055117;28;20037;-74
2023/05/28 00:02:52;;;;;;;16.27;8.13;;;19.60;89.80;;;;;;5055740;28;20021;-74
2023/05/28 00:05:18;;;;;;;18.17;8.85;;;19.60;89.80;;;;;;5055340;28;20104;-74
2023/05/28 00:07:43;;;;;;;16.27;8.60;;;19.60;90.00;;;;;;5055469;28;20024;-73
2023/05/28 00:10:10;;;;;;;15.15;8.32;;;19.60;90.00;;;;;;5054015;28;20021;-73
2023/05/28 00:12:35;;;;;;;15.07;7.82;;;19.60;90.10;;;;;;5055389;28;20021;-74
2023/05/28 00:15:01;;;;;;;22.10;8.00;;;19.60;90.00;;;;;;5048119;28;20390;-73
2023/05/28 00:17:27;;;;;;;17.05;8.65;;;19.50;90.00;;;;;;5053422;28;20029;-73
2023/05/28 00:19:53;;;;;;;18.02;8.45;;;19.50;90.20;;;;;;5053740;28;20053;-74
2023/05/28 00:22:19;;;;;;;14.93;7.85;;;19.50;90.20;;;;;;5054792;28;20099;-74
2023/05/28 00:24:45;;;;;;;16.77;8.98;;;19.50;90.20;;;;;;5053085;28;20036;-73
2023/05/28 00:27:11;;;;;;;16.85;8.25;;;19.50;90.20;;;;;;5054761;28;20103;-73
2023/05/28 00:29:37;;;;;;;18.70;8.80;;;19.50;90.30;;;;;;5054972;28;20041;-74
2023/05/28 00:32:02;;;;;;;15.20;8.18;;;19.50;90.30;;;;;;5054890;28;20096;-73
2023/05/28 00:34:28;;;;;;;15.48;8.48;;;19.50;90.30;;;;;;5054862;28;20044;-74
2023/05/28 00:36:54;;;;;;;19.45;8.82;;;19.50;90.40;;;;;;5054444;28;20049;-74
2023/05/28 00:39:19;;;;;;;19.75;8.80;;;19.50;90.40;;;;;;5054812;28;20079;-73
2023/05/28 00:41:46;;;;;;;15.77;8.40;;;19.40;90.40;;;;;;5038806;28;20036;-73
2023/05/28 00:44:12;;;;;;;17.83;8.25;;;19.40;90.40;;;;;;5034363;28;20173;-73
2023/05/28 00:46:42;;;;;;;17.88;8.57;;;19.30;90.40;;;;;;5034431;28;20096;-73
2023/05/28 00:49:09;;;;;;;18.80;8.43;;;19.40;90.50;;;;;;5034749;28;20018;-74
2023/05/28 00:51:35;;;;;;;17.08;8.68;;;19.40;90.40;;;;;;5034311;28;20021;-73
2023/05/28 00:54:01;;;;;;;19.08;8.48;;;19.40;90.50;;;;;;5034565;28;20124;-74
2023/05/28 00:56:28;;;;;;;14.05;8.35;;;19.30;90.50;;;;;;5034278;28;20079;-74
2023/05/28 00:58:55;;;;;;;20.05;8.80;;;19.30;90.50;;;;;;5034463;28;20025;-74
2023/05/28 01:01:24;;;;;;;16.88;9.07;;;19.30;90.50;;;;;;5034376;28;20037;-74
2023/05/28 01:03:51;;;;;;;15.85;9.32;;;19.30;90.50;;;;;;5034643;28;20541;-74
2023/05/28 01:06:20;;;;;;;17.80;8.55;;;19.30;90.50;;;;;;5034756;28;20026;-73
2023/05/28 01:08:47;;;;;;;18.15;8.95;;;19.20;90.60;;;;;;5033774;28;20379;-74
2023/05/28 01:11:17;;;;;;;18.75;9.10;;;19.20;90.60;;;;;;5034531;28;20017;-75
2023/05/28 01:13:44;;;;;;;20.02;8.60;;;19.20;90.70;;;;;;5034173;28;20522;-74
2023/05/28 01:16:10;;;;;;;19.85;8.65;;;19.20;90.70;;;;;;5034154;28;20033;-74
2023/05/28 01:18:44;;;;;;;18.70;9.18;;;19.20;90.90;;;;;;5034289;28;20072;-74
2023/05/28 01:21:10;;;;;;;19.98;9.20;;;19.20;90.90;;;;;;5034006;28;20466;-74
2023/05/28 01:23:47;;;;;;;18.02;9.60;;;19.20;91.00;;;;;;5032704;28;20029;-73
2023/05/28 01:26:14;;;;;;;20.23;8.82;;;19.10;91.10;;;;;;5034093;28;20025;-74
2023/05/28 01:28:43;;;;;;;18.65;8.68;;;19.10;91.10;;;;;;5033830;28;20033;-74
2023/05/28 01:31:12;;;;;;;16.92;10.38;;;19.10;91.20;;;;;;5032876;28;20034;-74
2023/05/28 01:33:41;;;;;;;19.85;9.95;;;19.00;91.30;;;;;;5033690;28;20022;-74
2023/05/28 01:36:15;;;;;;;18.58;9.60;;;19.00;91.40;;;;;;5033908;28;20052;-74
2023/05/28 01:38:43;;;;;;;14.52;9.40;;;19.00;91.40;;;;;;5033820;28;20097;-74
2023/05/28 01:41:09;;;;;;;19.52;10.43;;;19.10;91.50;;;;;;5033239;28;20026;-74
2023/05/28 01:43:36;;;;;;;21.98;10.80;;;19.00;91.60;;;;;;5033577;28;20021;-74
2023/05/28 01:46:02;;;;;;;17.73;9.32;;;18.90;91.60;;;;;;5033603;28;20021;-73
2023/05/28 01:48:29;;;;;;;22.58;10.57;;;18.90;91.80;;;;;;5032896;28;20037;-74
2023/05/28 01:50:54;;;;;;;21.15;10.35;;;18.90;91.80;;;;;;5033491;28;20549;-74
2023/05/28 01:53:20;;;;;;;21.35;9.55;;;18.90;91.90;;;;;;5033347;28;20493;-74
2023/05/28 01:55:46;;;;;;;16.90;10.10;;;18.90;91.90;;;;;;5033157;28;20061;-73
2023/05/28 01:58:11;;;;;;;19.90;10.27;;;18.80;92.00;;;;;;5033307;28;20053;-74
2023/05/28 02:00:44;;;;;;;21.65;11.15;;;18.80;92.00;;;;;;5033429;28;20033;-74
2023/05/28 02:03:11;;;;;;;18.73;10.32;;;18.80;92.10;;;;;;5033236;28;20021;-74
2023/05/28 02:05:37;;;;;;;19.85;11.00;;;18.70;92.20;;;;;;5033351;28;20028;-74
2023/05/28 02:08:03;;;;;;;22.30;11.75;;;18.70;92.20;;;;;;5033109;28;20013;-73
2023/05/28 02:10:28;;;;;;;20.52;10.70;;;18.70;92.20;;;;;;5033084;28;20036;-74
2023/05/28 02:12:54;;;;;;;22.77;11.63;;;18.70;92.30;;;;;;5033087;28;20375;-74
2023/05/28 02:15:21;;;;;;;22.50;11.27;;;18.70;92.40;;;;;;5033235;28;20438;-74
2023/05/28 02:17:47;;;;;;;23.13;11.63;;;18.70;92.40;;;;;;5033559;28;20068;-74
2023/05/28 02:20:13;;;;;;;18.23;11.23;;;18.60;92.40;;;;;;5033093;28;20029;-74
2023/05/28 02:22:39;;;;;;;18.23;10.73;;;18.60;92.50;;;;;;5032922;28;20383;-73
2023/05/28 02:25:05;;;;;;;21.88;12.07;;;18.60;92.50;;;;;;5032812;28;20480;-74
2023/05/28 02:27:30;;;;;;;22.20;11.93;;;18.70;92.70;;;;;;5032993;28;20044;-74
2023/05/28 02:29:56;;;;;;;20.50;12.00;;;18.60;92.70;;;;;;5032874;28;20034;-74
2023/05/28 02:32:22;;;;;;;23.63;12.13;;;18.60;92.80;;;;;;5033007;28;20036;-73
2023/05/28 02:34:48;;;;;;;23.92;12.05;;;18.60;92.80;;;;;;5032607;28;20110;-73
2023/05/28 02:37:14;;;;;;;25.65;12.55;;;18.50;92.90;;;;;;5032967;28;20109;-74
2023/05/28 02:39:39;;;;;;;20.17;12.52;;;18.50;92.90;;;;;;5032645;28;20026;-74
2023/05/28 02:42:05;;;;;;;22.83;11.35;;;18.50;93.00;;;;;;5032773;28;20056;-73
2023/05/28 02:44:31;;;;;;;22.70;12.15;;;18.50;93.00;;;;;;5032811;28;20028;-74
2023/05/28 02:46:57;;;;;;;22.17;12.27;;;18.50;93.00;;;;;;5032823;28;20028;-74
2023/05/28 02:49:22;;;;;;;23.30;12.45;;;18.50;93.10;;;;;;5032817;28;20489;-74
2023/05/28 02:51:48;;;;;;;23.88;12.80;;;18.40;93.10;;;;;;5032748;28;20049;-74
2023/05/28 02:54:13;;;;;;;21.13;12.13;;;18.40;93.20;;;;;;5032259;28;20497;-73
2023/05/28 02:56:39;;;;;;;22.40;12.73;;;18.40;93.20;;;;;;5032789;28;20100;-74
2023/05/28 02:59:04;;;;;;;25.48;13.25;;;18.40;93.30;;;;;;5033692;28;20045;-74
2023/05/28 03:01:30;;;;;;;25.80;13.15;;;18.40;93.30;;;;;;5036742;28;20475;-74
2023/05/28 03:03:56;;;;;;;23.48;12.90;;;18.30;93.40;;;;;;5036418;28;20550;-74
2023/05/28 03:06:22;;;;;;;24.17;12.05;;;18.30;93.40;;;;;;5036752;28;20025;-74
2023/05/28 03:08:48;;;;;;;23.92;13.15;;;18.30;93.50;;;;;;5036296;28;20068;-74
2023/05/28 03:11:13;;;;;;;24.17;13.52;;;18.30;93.50;;;;;;5036549;28;20471;-74
2023/05/28 03:13:39;;;;;;;24.10;12.98;;;18.30;93.60;;;;;;5036306;28;20083;-74
2023/05/28 03:16:05;;;;;;;22.80;12.25;;;18.20;93.60;;;;;;5036539;28;20030;-73
2023/05/28 03:18:31;;;;;;;22.27;12.35;;;18.20;93.70;;;;;;5035244;28;20010;-73
2023/05/28 03:20:57;;;;;;;20.60;13.05;;;18.20;93.70;;;;;;5036480;28;20025;-74
2023/05/28 03:23:22;;;;;;;22.48;12.27;;;18.10;93.80;;;;;;5035978;28;20427;-74
2023/05/28 03:25:48;;;;;;;27.88;13.25;;;18.20;93.80;;;;;;5036270;28;20034;-73
2023/05/28 03:28:13;;;;;;;25.98;12.65;;;18.20;93.80;;;;;;5036078;28;20120;-72
2023/05/28 03:30:39;;;;;;;24.13;12.93;;;18.20;93.80;;;;;;5034870;28;20120;-74
2023/05/28 03:33:05;;;;;;;24.40;12.48;;;18.10;93.90;;;;;;5036585;28;20474;-73
2023/05/28 03:35:30;;;;;;;23.23;12.70;;;18.10;93.90;;;;;;5035941;28;20497;-74
2023/05/28 03:37:57;;;;;;;21.92;12.25;;;18.00;93.90;;;;;;5035730;28;20158;-74
2023/05/28 03:40:22;;;;;;;24.65;13.07;;;18.00;94.00;;;;;;5035982;28;20053;-74
2023/05/28 03:42:48;;;;;;;22.70;12.50;;;18.00;94.00;;;;;;5036011;28;20060;-74
2023/05/28 03:45:13;;;;;;;22.00;12.75;;;18.00;94.00;;;;;;5035858;28;20057;-74
2023/05/28 03:47:39;;;;;;;27.00;12.82;;;18.00;94.00;;;;;;5035814;28;20022;-74
2023/05/28 03:50:05;;;;;;;21.13;12.13;;;18.00;94.00;;;;;;5035499;28;20022;-73
2023/05/28 03:52:31;;;;;;;21.13;12.32;;;18.00;94.10;;;;;;5034286;28;20031;-73
2023/05/28 03:54:57;;;;;;;24.73;12.50;;;18.00;94.10;;;;;;5035319;28;20034;-73
2023/05/28 03:57:22;;;;;;;24.17;13.15;;;18.00;94.10;;;;;;5035884;28;20430;-74
2023/05/28 03:59:48;;;;;;;23.20;13.30;;;18.00;94.10;;;;;;5035575;28;20061;-74
2023/05/28 04:02:13;;;;;;;27.15;12.10;;;17.90;94.20;;;;;;5017834;28;20419;-74
2023/05/28 04:04:39;;;;;;;25.08;13.38;;;17.90;94.20;;;;;;5033906;28;20029;-73
2023/05/28 04:07:05;;;;;;;22.42;12.60;;;17.90;94.30;;;;;;5035536;28;20026;-74
2023/05/28 04:09:31;;;;;;;21.10;11.90;;;17.90;94.40;;;;;;5034228;28;20376;-74
2023/05/28 04:11:56;;;;;;;24.77;12.88;;;17.80;94.40;;;;;;5033379;28;20020;-74
2023/05/28 04:14:22;;;;;;;20.02;11.82;;;17.90;94.50;;;;;;5035282;28;20033;-74
2023/05/28 04:16:48;;;;;;;22.15;12.75;;;17.80;94.50;;;;;;5035190;28;20017;-74
2023/05/28 04:19:13;;;;;;;21.77;12.05;;;17.90;94.40;;;;;;5035063;28;20450;-73
2023/05/28 04:21:39;;;;;;;24.35;12.27;;;17.80;94.50;;;;;;5038384;28;20114;-74
2023/05/28 04:24:05;;;;;;;21.33;12.27;;;17.80;94.50;;;;;;5044344;28;20456;-74
2023/05/28 04:26:32;;;;;;;19.75;11.32;;;17.80;94.50;;;;;;5054835;28;20489;-74
2023/05/28 04:28:59;;;;;;;24.08;11.30;;;17.80;94.50;;;;;;5053620;28;20044;-74
2023/05/28 04:31:27;;;;;;;20.80;11.07;;;17.80;94.40;;;;;;5053625;28;20108;-74
2023/05/28 04:33:53;;;;;;;19.80;11.40;;;17.80;94.40;;;;;;5055736;28;20033;-74
2023/05/28 04:36:19;;;;;;;19.55;11.30;;;17.80;94.40;;;;;;5053759;28;20531;-74
2023/05/28 04:38:45;;;;;;;24.02;11.50;;;17.80;94.40;;;;;;5043187;28;20029;-73
2023/05/28 04:41:14;;;;;;;19.20;10.77;;;17.80;94.50;;;;;;5041151;28;20029;-74
2023/05/28 04:43:43;;;;;;;17.90;11.10;;;17.80;94.40;;;;;;5038790;28;20420;-73
2023/05/28 04:46:09;;;;;;;20.42;10.85;;;17.80;94.50;;;;;;5036087;28;20040;-73
2023/05/28 04:48:35;;;;;;;21.73;11.48;;;17.80;94.80;;;;;;5034566;28;20192;-74
2023/05/28 04:51:03;;;;;;;19.77;11.30;;;17.80;94.50;;;;;;5034663;28;20501;-74
2023/05/28 04:53:29;;;;;;;23.35;11.32;;;17.80;94.50;;;;;;5034316;28;20441;-74
2023/05/28 04:55:55;;;;;;;19.67;10.77;;;17.80;94.50;;;;;;5034481;28;20068;-73
2023/05/28 04:58:21;;;;;;;19.63;10.70;;;17.80;94.50;;;;;;5034970;28;20079;-73
2023/05/28 05:00:47;;;;;;;21.23;11.32;;;17.80;94.60;;;;;;5034071;28;20108;-73
2023/05/28 05:03:14;;;;;;;20.75;10.95;;;17.80;94.60;;;;;;5034038;28;20119;-73
2023/05/28 05:05:40;;;;;;;23.15;11.02;;;17.80;94.70;;;;;;5033209;28;20017;-74
2023/05/28 05:08:06;;;;;;;18.50;10.77;;;17.80;94.70;;;;;;5033383;28;20026;-74
2023/05/28 05:10:32;;;;;;;26.55;11.38;;;17.80;94.70;;;;;;5034144;28;20509;-74
2023/05/28 05:12:59;;;;;;;22.88;11.35;;;17.80;94.80;;;;;;5034161;28;20093;-73
2023/05/28 05:15:25;;;;;;;16.42;10.60;;;17.80;94.90;;;;;;5034196;28;20518;-73
2023/05/28 05:17:52;;;;;;;20.77;11.68;;;17.80;95.00;;;;;;5033757;28;20025;-74
2023/05/28 05:20:17;;;;;;;23.65;11.35;;;17.70;95.00;;;;;;5033489;28;20029;-74
2023/05/28 05:22:43;;;;;;;22.50;11.85;;;17.80;94.90;;;;;;5033048;28;20479;-74
2023/05/28 05:25:09;;;;;;;20.80;11.25;;;17.80;95.00;;;;;;5034087;28;20063;-74
2023/05/28 05:27:35;;;;;;;19.23;11.32;;;17.80;95.00;;;;;;5033736;28;20497;-74
2023/05/28 05:30:02;;;;;;;20.92;11.57;;;17.80;95.20;;;;;;5033957;28;20495;-74
2023/05/28 05:32:27;;;;;;;17.58;10.40;;;17.80;95.10;;;;;;5033579;28;20032;-74
2023/05/28 05:34:53;;;;;;;22.83;11.77;;;17.80;95.10;;;;;;5033661;28;20108;-74
2023/05/28 05:37:18;;;;;;;16.48;10.48;;;17.90;95.40;;;;;;5033701;28;20017;-74
2023/05/28 05:39:44;;;;;;;19.95;10.82;;;17.90;95.50;;;;;;5033911;28;20033;-73
2023/05/28 05:42:10;;;;;;;24.48;11.10;;;18.00;95.70;;;;;;5033475;28;20502;-73
2023/05/28 05:44:35;;;;;;;22.40;11.10;;;18.00;95.80;;;;;;5033649;28;20147;-73
2023/05/28 05:47:01;;;;;;;20.60;11.05;;;18.00;95.80;;;;;;5033272;28;20025;-73
2023/05/28 05:49:26;;;;;;;22.05;12.00;;;18.10;96.00;;;;;;5033698;28;20025;-73
2023/05/28 05:51:52;;;;;;;22.48;11.18;;;18.10;96.10;;;;;;5033482;28;20025;-73
2023/05/28 05:54:17;;;;;;;20.77;10.50;;;18.30;96.10;;;;;;5033198;28;20037;-74
2023/05/28 05:56:44;;;;;;;23.40;11.82;;;18.30;96.00;;;;;;5032093;28;20024;-74
2023/05/28 05:59:10;;;;;;;19.58;9.70;;;18.40;95.80;;;;;;5033419;28;20108;-74
2023/05/28 06:01:36;;;;;;;16.73;9.77;;;18.40;95.70;;;;;;5031986;28;20060;-74
2023/05/28 06:04:01;;;;;;;21.55;10.75;;;18.50;95.50;;;;;;5033147;28;20025;-73
2023/05/28 06:06:27;;;;;;;20.50;10.45;;;18.50;95.50;;;;;;5033234;28;20095;-73
2023/05/28 06:08:52;;;;;;;17.58;9.20;;;18.60;95.20;;;;;;5033234;28;20052;-73
2023/05/28 06:11:18;;;;;;;18.02;9.68;;;18.60;95.30;;;;;;5033329;28;20429;-73
2023/05/28 06:13:44;;;;;;;20.35;9.98;;;18.70;95.30;;;;;;5032973;28;20029;-73
2023/05/28 06:16:10;;;;;;;18.73;9.15;;;18.80;95.10;;;;;;5031665;28;20036;-73
2023/05/28 06:18:36;;;;;;;15.05;8.75;;;18.80;95.10;;;;;;5033042;28;20120;-73
2023/05/28 06:21:03;;;;;;;15.35;9.18;;;18.90;94.80;;;;;;5032681;28;20109;-72
2023/05/28 06:23:29;;;;;;;17.45;8.80;;;19.00;94.60;;;;;;5035820;28;20021;-71
2023/05/28 06:25:54;;;;;;;15.98;9.57;;;19.00;94.50;;;;;;5033015;28;20077;-71
2023/05/28 06:28:20;;;;;;;20.83;8.98;;;19.10;94.40;;;;;;5032484;28;20040;-72
2023/05/28 06:30:46;;;;;;;19.35;9.88;;;19.20;94.30;;;;;;5031824;28;20026;-71
2023/05/28 06:33:11;;;;;;;20.02;9.77;;;19.20;94.40;;;;;;5036236;28;20048;-71
2023/05/28 06:35:37;;;;;;;15.52;9.00;;;19.30;94.00;;;;;;5047507;28;20112;-71
2023/05/28 06:38:03;;;;;;;15.43;9.60;;;19.40;93.60;;;;;;5049016;28;20083;-71
2023/05/28 06:40:28;;;;;;;18.25;9.23;;;19.40;93.50;;;;;;5046263;28;20386;-72
2023/05/28 06:42:54;;;;;;;14.52;8.45;;;19.50;93.40;;;;;;5044452;28;20029;-71
2023/05/28 06:45:20;;;;;;;17.75;9.10;;;19.50;93.10;;;;;;5036445;28;20033;-71
2023/05/28 06:47:47;;;;;;;18.42;8.50;;;19.50;93.00;;;;;;5050429;28;20026;-72
2023/05/28 06:50:13;;;;;;;18.27;8.95;;;19.60;92.90;;;;;;5048737;28;20036;-71
2023/05/28 06:52:39;;;;;;;21.00;9.07;;;19.60;92.70;;;;;;5050752;28;20025;-71
2023/05/28 06:55:08;;;;;;;17.20;8.32;;;19.70;92.70;;;;;;5050061;28;20554;-73
2023/05/28 06:57:36;;;;;;;19.17;8.88;;;19.70;92.80;;;;;;5034332;28;20112;-72
2023/05/28 07:00:09;;;;;;;17.65;8.27;;;19.70;93.00;;;;;;5043696;28;20037;-72
2023/05/28 07:02:34;;;;;;;21.65;8.68;;;19.80;92.80;;;;;;5044944;28;20090;-72
2023/05/28 07:05:00;;;;;;;12.35;7.15;;;19.90;92.50;;;;;;5043851;28;20211;-72
2023/05/28 07:07:25;;;;;;;14.95;7.95;;;19.90;92.50;;;;;;5031662;28;20026;-72
2023/05/28 07:09:51;;;;;;;13.85;7.00;;;19.90;92.50;;;;;;5032158;28;20033;-72
2023/05/28 07:12:17;;;;;;;10.60;6.65;;;20.00;92.50;;;;;;5032230;28;20140;-72
2023/05/28 07:14:42;;;;;;;14.85;7.78;;;20.00;92.30;;;;;;5032915;28;20445;-72
2023/05/28 07:17:10;;;;;;;17.77;8.40;;;20.00;92.20;;;;;;5032990;28;20478;-72
2023/05/28 07:19:36;;;;;;;14.00;7.55;;;20.20;91.90;;;;;;5044037;28;20033;-72
2023/05/28 07:22:01;;;;;;;16.52;7.70;;;20.30;92.00;;;;;;5045822;28;20108;-72
2023/05/28 07:24:27;;;;;;;16.13;8.07;;;20.30;92.20;;;;;;5061836;28;20017;-72
2023/05/28 07:26:53;;;;;;;18.50;8.40;;;20.30;92.30;;;;;;5051030;28;20497;-72
2023/05/28 07:29:18;;;;;;;18.55;8.52;;;20.30;92.00;;;;;;5036528;28;20116;-72
2023/05/28 07:31:44;;;;;;;15.30;8.43;;;20.40;91.70;;;;;;5052415;28;20052;-72
2023/05/28 07:34:10;;;;;;;20.20;8.57;;;20.40;91.60;;;;;;5052033;28;20561;-72
2023/05/28 07:36:37;;;;;;;16.23;7.88;;;20.60;90.90;;;;;;5043464;28;20112;-72
2023/05/28 07:39:04;;;;;;;15.07;8.13;;;20.60;91.10;;;;;;5032224;28;20037;-72
2023/05/28 07:41:30;;;;;;;16.90;8.45;;;20.60;91.40;;;;;;5051534;28;20032;-73
2023/05/28 07:43:55;;;;;;;16.23;8.40;;;20.70;90.90;;;;;;5050241;28;20044;-73
2023/05/28 07:46:24;;;;;;;18.58;8.32;;;20.70;90.80;;;;;;5048250;28;20406;-74
2023/05/28 07:48:50;;;;;;;14.27;6.95;;;20.70;91.10;;;;;;5052942;28;20099;-72
2023/05/28 07:51:16;;;;;;;12.38;5.68;;;20.70;91.30;;;;;;5047889;28;20147;-73
2023/05/28 07:53:43;;;;;;;13.55;7.20;;;20.70;91.50;;;;;;5042214;28;20041;-72
2023/05/28 07:56:09;;;;;;;15.13;7.50;;;20.80;91.00;;;;;;5040659;28;20063;-72
2023/05/28 07:58:35;;;;;;;17.63;7.03;;;20.80;90.70;;;;;;5054388;28;20078;-73
2023/05/28 08:01:01;;;;;;;18.05;7.30;;;20.90;90.00;;;;;;5049727;28;20025;-73
2023/05/28 08:03:27;;;;;;;15.73;6.18;;;20.90;89.90;;;;;;5038104;28;20029;-72
2023/05/28 08:05:54;;;;;;;13.88;7.15;;;21.00;90.20;;;;;;5042568;28;20032;-73
2023/05/28 08:08:19;;;;;;;11.90;6.50;;;21.00;90.10;;;;;;5040864;28;20052;-73
2023/05/28 08:10:45;;;;;;;12.55;6.88;;;21.00;90.30;;;;;;5040174;28;20277;-73
2023/05/28 08:13:11;;;;;;;13.10;6.88;;;21.00;90.40;;;;;;5042946;28;20100;-73
2023/05/28 08:15:37;;;;;;;16.60;7.18;;;21.00;90.10;;;;;;5034763;28;20033;-73
2023/05/28 08:18:02;;;;;;;14.00;6.57;;;21.10;88.60;;;;;;5045551;28;20029;-73
2023/05/28 08:20:29;;;;;;;14.23;6.47;;;21.20;87.30;;;;;;5046070;28;20360;-73
2023/05/28 08:22:54;;;;;;;11.27;5.75;;;21.20;86.60;;;;;;5048457;28;20028;-74
2023/05/28 08:25:20;;;;;;;10.65;5.03;;;21.30;85.20;;;;;;5044412;28;20025;-72
2023/05/28 08:27:46;;;;;;;11.57;5.97;;;21.40;84.30;;;;;;5050105;28;20066;-73
2023/05/28 08:30:12;;;;;;;10.80;5.22;;;21.50;84.50;;;;;;5044661;28;20038;-73
2023/05/28 08:32:37;;;;;;;9.23;5.00;;;21.50;83.60;;;;;;5051298;28;20025;-73
2023/05/28 08:35:03;;;;;;;12.55;5.82;;;21.50;83.50;;;;;;5073796;28;20119;-73
2023/05/28 08:37:29;;;;;;;9.00;4.78;;;21.60;83.00;;;;;;5043449;28;20045;-73
2023/05/28 08:39:55;;;;;;;10.68;5.18;;;21.70;82.50;;;;;;5055582;28;20040;-74
2023/05/28 08:42:20;;;;;;;9.93;4.85;;;21.60;81.70;;;;;;5067142;28;20028;-73
2023/05/28 08:44:46;;;;;;;11.52;5.35;;;21.70;81.30;;;;;;5059232;28;20430;-73
2023/05/28 08:47:13;;;;;;;7.28;3.95;;;21.70;82.00;;;;;;5051525;28;20020;-73
2023/05/28 08:49:45;;;;;;;11.02;4.80;;;21.60;81.50;;;;;;5037180;28;20167;-73
2023/05/28 08:52:15;;;;;;;7.73;4.23;;;21.70;81.00;;;;;;5041830;28;20022;-73
2023/05/28 08:54:41;;;;;;;11.57;4.60;;;21.70;81.40;;;;;;5044162;28;20044;-72
2023/05/28 08:57:07;;;;;;;14.50;4.30;;;21.80;81.00;;;;;;5031091;28;20030;-72
2023/05/28 08:59:33;;;;;;;9.10;4.43;;;21.80;81.30;;;;;;5043828;28;20032;-73
2023/05/28 09:01:59;;;;;;;10.35;4.22;;;21.90;80.10;;;;;;5045723;28;20033;-73
2023/05/28 09:04:25;;;;;;;11.32;4.80;;;21.90;80.20;;;;;;5052773;28;20052;-73
2023/05/28 09:06:51;;;;;;;8.18;4.07;;;21.90;79.90;;;;;;5042371;28;20064;-72
2023/05/28 09:09:17;;;;;;;9.70;4.40;;;21.90;80.40;;;;;;5052696;28;20032;-72
2023/05/28 09:11:43;;;;;;;7.32;4.10;;;21.90;79.90;;;;;;5046831;28;20029;-72
2023/05/28 09:14:13;;;;;;;10.68;4.03;;;21.90;79.70;;;;;;5050044;28;20051;-73
2023/05/28 09:16:45;;;;;;;9.40;3.53;;;22.00;79.20;;;;;;5035804;28;20076;-72
2023/05/28 09:19:15;;;;;;;12.52;4.75;;;21.90;81.00;;;;;;5042233;28;20036;-73
2023/05/28 09:21:52;;;;;;;8.77;3.65;;;22.00;79.70;;;;;;5039086;28;20072;-72
2023/05/28 09:24:18;;;;;;;11.02;4.38;;;22.00;80.20;;;;;;5045135;28;20181;-72
2023/05/28 09:26:43;;;;;;;9.07;3.95;;;22.00;78.40;;;;;;5049075;28;20833;-72
2023/05/28 09:29:12;;;;;;;11.90;4.00;;;22.00;78.40;;;;;;5043553;28;20420;-73
2023/05/28 09:31:39;;;;;;;8.45;4.18;;;22.10;78.80;;;;;;5049651;28;20041;-73
2023/05/28 09:34:05;;;;;;;10.43;3.88;;;22.10;79.00;;;;;;5044961;28;20116;-73
2023/05/28 09:36:31;;;;;;;11.80;4.30;;;22.10;78.80;;;;;;5050952;28;20223;-70
2023/05/28 09:38:57;;;;;;;8.82;3.70;;;22.10;79.00;;;;;;5053466;28;20086;-73
2023/05/28 09:41:24;;;;;;;6.85;3.70;;;22.10;77.80;;;;;;5048485;28;20029;-73
2023/05/28 09:43:56;;;;;;;8.80;4.00;;;22.20;77.20;;;;;;5036315;28;20103;-73
2023/05/28 09:46:31;;;;;;;7.65;3.30;;;22.20;77.20;;;;;;5040623;28;20099;-74
2023/05/28 09:48:57;;;;;;;7.00;3.53;;;22.20;77.30;;;;;;5041816;28;20036;-73
2023/05/28 09:51:28;;;;;;;8.32;3.95;;;22.20;78.50;;;;;;5043915;28;20067;-73
2023/05/28 09:54:06;;;;;;;9.73;3.50;;;22.20;77.70;;;;;;5039864;28;20025;-72
2023/05/28 09:56:33;;;;;;;7.47;3.80;;;22.20;77.90;;;;;;5050637;28;20291;-72
2023/05/28 09:59:01;;;;;;;7.72;4.07;;;22.20;78.60;;;;;;5042814;28;20032;-72
2023/05/28 10:01:47;;;;;;;10.93;3.55;;;22.30;77.90;;;;;;5044612;28;20095;-74
2023/05/28 10:04:14;;;;;;;8.00;3.47;;;22.30;77.80;;;;;;5043085;28;20029;-73
2023/05/28 10:06:42;;;;;;;7.13;3.35;;;22.20;79.40;;;;;;5040168;28;20025;-73
2023/05/28 10:09:15;;;;;;;5.53;3.22;;;22.30;79.30;;;;;;5040654;28;20575;-73
2023/05/28 10:11:58;;;;;;;7.88;3.75;;;22.30;78.40;;;;;;5040742;28;20036;-71
2023/05/28 10:14:24;;;;;;;7.05;3.70;;;22.30;78.00;;;;;;5045694;28;20033;-73
2023/05/28 10:16:51;;;;;;;10.35;3.33;;;22.30;76.30;;;;;;5034255;28;20434;-71
2023/05/28 10:19:17;;;;;;;10.43;3.67;;;22.30;76.70;;;;;;5039065;28;20523;-73
2023/05/28 10:21:42;;;;;;;7.40;3.63;;;22.40;76.40;;;;;;5038428;28;20029;-71
2023/05/28 10:24:08;;;;;;;8.77;3.47;;;22.40;73.30;;;;;;5045186;28;20429;-72
2023/05/28 10:26:34;;;;;;;8.23;3.38;;;22.40;74.20;;;;;;5033455;28;20024;-74
2023/05/28 10:29:00;;;;;;;7.78;3.22;;;22.50;73.40;;;;;;5048323;28;20048;-74
2023/05/28 10:31:26;;;;;;;9.82;4.03;;;22.40;74.70;;;;;;5046032;28;20063;-74
2023/05/28 10:33:52;;;;;;;6.88;3.28;;;22.50;73.70;;;;;;5053850;28;20056;-72
2023/05/28 10:36:18;;;;;;;8.50;3.92;;;22.40;74.30;;;;;;5050191;28;20058;-73
2023/05/28 10:39:00;;;;;;;11.23;3.55;;;22.50;75.50;;;;;;5055104;28;20104;-71
2023/05/28 10:41:31;;;;;;;9.30;3.55;;;22.50;74.40;;;;;;5045631;28;20051;-73
2023/05/28 10:44:06;;;;;;;8.23;3.40;;;22.50;73.80;;;;;;5035729;28;20026;-71
2023/05/28 10:46:39;;;;;;;7.80;3.38;;;22.50;75.50;;;;;;5042808;28;20034;-71
2023/05/28 10:49:12;;;;;;;7.88;3.60;;;22.50;73.30;;;;;;5045560;28;20078;-72
2023/05/28 10:52:04;;;;;;;6.53;3.30;;;22.50;75.90;;;;;;5043493;28;20036;-72
2023/05/28 10:54:30;;;;;;;9.77;3.72;;;22.60;72.20;;;;;;5048237;28;20900;-72
2023/05/28 10:57:13;;;;;;;8.18;3.95;;;22.50;74.00;;;;;;5047772;28;20104;-72
2023/05/28 10:59:42;;;;;;;7.85;3.83;;;22.50;72.50;;;;;;5039832;28;20108;-72
2023/05/28 11:02:09;;;;;;;9.82;3.58;;;22.50;72.50;;;;;;5050594;28;20271;-73
2023/05/28 11:04:35;;;;;;;9.40;2.88;;;22.50;72.50;;;;;;5058072;28;20021;-72
2023/05/28 11:07:02;;;;;;;8.43;3.45;;;22.50;73.60;;;;;;5036323;28;20024;-74
2023/05/28 11:09:28;;;;;;;10.20;3.35;;;22.60;72.30;;;;;;5039432;28;20662;-72
2023/05/28 11:12:02;;;;;;;6.90;3.38;;;22.60;72.40;;;;;;5036302;28;20082;-73
2023/05/28 11:14:37;;;;;;;6.15;3.00;;;22.60;74.70;;;;;;5039196;28;20037;-73
2023/05/28 11:17:11;;;;;;;7.88;3.08;;;22.60;72.80;;;;;;5041992;28;20037;-73
2023/05/28 11:19:51;;;;;;;5.93;3.42;;;22.60;72.60;;;;;;5032594;28;20036;-72
2023/05/28 11:22:18;;;;;;;7.05;3.20;;;22.70;73.30;;;;;;5035761;28;20037;-72
2023/05/28 11:25:03;;;;;;;8.70;3.38;;;22.60;75.30;;;;;;5040039;28;20018;-76
2023/05/28 11:27:32;;;;;;;7.88;3.20;;;22.60;75.80;;;;;;5051129;28;20514;-75
2023/05/28 11:29:59;;;;;;;7.22;2.88;;;22.60;75.00;;;;;;5041556;28;20119;-75
2023/05/28 11:32:27;;;;;;;9.68;3.20;;;22.60;76.70;;;;;;5044526;28;20025;-75
2023/05/28 11:34:55;;;;;;;10.18;3.25;;;22.60;72.80;;;;;;5041317;28;20032;-75
2023/05/28 11:37:29;;;;;;;7.13;3.45;;;22.60;72.90;;;;;;5040153;28;20048;-75
2023/05/28 11:39:59;;;;;;;5.75;3.00;;;22.60;73.10;;;;;;5053600;28;21500;-74
2023/05/28 11:42:33;;;;;;;5.43;3.17;;;22.70;75.30;;;;;;5038320;28;20381;-74
2023/05/28 11:44:58;;;;;;;7.57;3.47;;;22.70;72.80;;;;;;5043580;28;20028;-74
2023/05/28 11:47:26;;;;;;;6.55;3.05;;;22.70;72.90;;;;;;5044754;28;20025;-74
2023/05/28 11:49:52;;;;;;;6.10;3.60;;;22.70;74.90;;;;;;5045836;28;20396;-74
2023/05/28 11:52:20;;;;;;;7.05;3.58;;;22.70;72.70;;;;;;5040264;28;20021;-71
2023/05/28 11:54:54;;;;;;;7.03;3.30;;;22.70;73.70;;;;;;5039401;28;20033;-71
2023/05/28 11:57:26;;;;;;;9.02;3.35;;;22.70;74.90;;;;;;5047803;28;20072;-71
2023/05/28 11:59:56;;;;;;;;;;;22.70;74.80;;;;;;5050637;28;20350;-70
2023/05/28 12:02:22;;;;;;;8.10;3.53;;;22.70;76.30;;;;;;5060505;28;19908;-71
2023/05/28 12:04:57;;;;;;;10.43;3.53;;;22.70;77.10;;;;;;5042524;28;20805;-71
2023/05/28 12:07:32;;;;;;;9.77;4.03;;;22.80;74.80;;;;;;5054107;28;20040;-72
2023/05/28 12:10:06;;;;;;;8.05;3.83;;;22.70;75.40;;;;;;5043646;28;20025;-71
2023/05/28 12:12:34;;;;;;;9.70;4.25;;;22.70;75.00;;;;;;5041794;28;20096;-72
2023/05/28 12:15:04;;;;;;;6.53;3.70;;;22.80;74.10;;;;;;5037866;28;20478;-71
2023/05/28 12:17:36;;;;;;;6.47;3.47;;;22.80;74.60;;;;;;5061412;28;20016;-74
2023/05/28 12:20:26;;;;;;;5.57;2.92;;;22.80;75.20;;;;;;5047420;28;20108;-73
2023/05/28 12:23:12;;;;;;;6.85;3.50;;;22.80;75.40;;;;;;5034087;28;20112;-74
2023/05/28 12:25:43;;;;;;;9.52;3.88;;;22.80;76.20;;;;;;5035894;28;20025;-72
2023/05/28 12:28:10;;;;;;;6.53;3.08;;;22.80;74.50;;;;;;5044774;28;20163;-72
2023/05/28 12:30:38;;;;;;;7.20;3.22;;;22.80;75.40;;;;;;5037141;28;20034;-71
2023/05/28 12:33:03;;;;;;;9.25;3.88;;;22.90;77.20;;;;;;5054126;28;20048;-72
2023/05/28 12:35:29;;;;;;;8.05;3.63;;;22.90;76.20;;;;;;5068005;28;20065;-72